AFR3242 LFBO-LIMC
Flight info
| Callsign | AFR3242 |
|---|---|
| Flight time | 1h 32m |
| Altitude | 30000 |
| Route | MEN DCT NINUN DCT LATAM DCT ROMAM/N0457F310 DCT ETIDO DCT NEDRU DCT RILIP/N0436F270 DCT EMMEF/N0424F250 DCT LAPRI/N0417F240 DCT MOGBO/N0424F250 DCT TOP M135 ASTIG |
| Aircraft | CRJX/M-SDFGIRWY/S |
Departure
| Time | 2026-05-05 19:28 |
|---|---|
| Airport | Toulouse-Blagnac Airport (LFBO) |
Arrival
| Time | 2026-05-05 21:01 |
|---|---|
| Airport | Milan Malpensa International Airport (LIMC) |
| Time | Latitude | Longitude | Altitude | Speed | Heading |
|---|---|---|---|---|---|
| 2026-05-05 18:54 | 43.63057 | 1.37199 | 486 ft | 0 kts | 82° |
| 2026-05-05 19:18 | 43.63055 | 1.37177 | 485 ft | 3 kts | 79° |
| 2026-05-05 19:18 | 43.63051 | 1.37150 | 485 ft | 3 kts | 77° |
| 2026-05-05 19:19 | 43.63046 | 1.37124 | 485 ft | 3 kts | 73° |
| 2026-05-05 19:19 | 43.63040 | 1.37099 | 487 ft | 3 kts | 69° |
| 2026-05-05 19:19 | 43.63033 | 1.37075 | 484 ft | 3 kts | 68° |
| 2026-05-05 19:19 | 43.63029 | 1.37058 | 482 ft | 1 kts | 88° |
| 2026-05-05 19:20 | 43.63030 | 1.37047 | 486 ft | 1 kts | 102° |
| 2026-05-05 19:20 | 43.63030 | 1.37044 | 486 ft | 0 kts | 104° |
| 2026-05-05 19:23 | 43.63030 | 1.37045 | 492 ft | 1 kts | 104° |
| 2026-05-05 19:23 | 43.63024 | 1.37084 | 488 ft | 8 kts | 98° |
| 2026-05-05 19:23 | 43.62981 | 1.37167 | 489 ft | 14 kts | 142° |
| 2026-05-05 19:23 | 43.62886 | 1.37165 | 486 ft | 18 kts | 232° |
| 2026-05-05 19:24 | 43.62790 | 1.37066 | 490 ft | 18 kts | 161° |
| 2026-05-05 19:24 | 43.62687 | 1.37166 | 487 ft | 18 kts | 144° |
| 2026-05-05 19:24 | 43.62590 | 1.37266 | 490 ft | 17 kts | 143° |
| 2026-05-05 19:24 | 43.62494 | 1.37365 | 484 ft | 17 kts | 143° |
| 2026-05-05 19:25 | 43.62399 | 1.37464 | 483 ft | 17 kts | 143° |
| 2026-05-05 19:25 | 43.62305 | 1.37563 | 488 ft | 17 kts | 143° |
| 2026-05-05 19:25 | 43.62209 | 1.37662 | 483 ft | 17 kts | 143° |
| 2026-05-05 19:25 | 43.62115 | 1.37759 | 488 ft | 17 kts | 143° |
| 2026-05-05 19:26 | 43.62023 | 1.37854 | 485 ft | 16 kts | 143° |
| 2026-05-05 19:26 | 43.61934 | 1.37947 | 486 ft | 16 kts | 142° |
| 2026-05-05 19:26 | 43.61847 | 1.38038 | 485 ft | 16 kts | 143° |
| 2026-05-05 19:26 | 43.61761 | 1.38127 | 489 ft | 15 kts | 143° |
| 2026-05-05 19:27 | 43.61670 | 1.38173 | 492 ft | 14 kts | 201° |
| 2026-05-05 19:27 | 43.61607 | 1.38079 | 487 ft | 13 kts | 232° |
| 2026-05-05 19:27 | 43.61608 | 1.37977 | 491 ft | 11 kts | 319° |
| 2026-05-05 19:27 | 43.61671 | 1.37911 | 486 ft | 13 kts | 323° |
| 2026-05-05 19:28 | 43.61854 | 1.37721 | 484 ft | 63 kts | 323° |
| 2026-05-05 19:28 | 43.62393 | 1.37159 | 492 ft | 128 kts | 323° |
| 2026-05-05 19:28 | 43.63245 | 1.36269 | 541 ft | 172 kts | 322° |
| 2026-05-05 19:28 | 43.64034 | 1.35456 | 1142 ft | 168 kts | 323° |
| 2026-05-05 19:29 | 43.64993 | 1.34472 | 1859 ft | 176 kts | 320° |
| 2026-05-05 19:29 | 43.66021 | 1.33373 | 2390 ft | 196 kts | 319° |
| 2026-05-05 19:29 | 43.66740 | 1.32585 | 2868 ft | 201 kts | 319° |
| 2026-05-05 19:29 | 43.68255 | 1.30959 | 3682 ft | 220 kts | 327° |
| 2026-05-05 19:30 | 43.69822 | 1.30367 | 3975 ft | 250 kts | 359° |
| 2026-05-05 19:30 | 43.71507 | 1.31089 | 4682 ft | 262 kts | 30° |
| 2026-05-05 19:30 | 43.72408 | 1.32214 | 5209 ft | 267 kts | 50° |
| 2026-05-05 19:30 | 43.73136 | 1.34555 | 6059 ft | 271 kts | 81° |
| 2026-05-05 19:31 | 43.73231 | 1.37235 | 6538 ft | 286 kts | 88° |
| 2026-05-05 19:31 | 43.73363 | 1.39978 | 7266 ft | 287 kts | 77° |
| 2026-05-05 19:31 | 43.74140 | 1.42505 | 7981 ft | 287 kts | 52° |
| 2026-05-05 19:31 | 43.75575 | 1.44398 | 8671 ft | 288 kts | 37° |
| 2026-05-05 19:32 | 43.77055 | 1.46312 | 9352 ft | 294 kts | 47° |
| 2026-05-05 19:32 | 43.78352 | 1.48531 | 10037 ft | 299 kts | 52° |
| 2026-05-05 19:32 | 43.80014 | 1.51608 | 10895 ft | 303 kts | 52° |
| 2026-05-05 19:32 | 43.80894 | 1.53193 | 11129 ft | 314 kts | 51° |
| 2026-05-05 19:33 | 43.82162 | 1.55703 | 11391 ft | 331 kts | 64° |
| 2026-05-05 19:33 | 43.82973 | 1.58733 | 11883 ft | 339 kts | 74° |
| 2026-05-05 19:33 | 43.83611 | 1.61937 | 12535 ft | 342 kts | 76° |
| 2026-05-05 19:33 | 43.84219 | 1.65138 | 13187 ft | 345 kts | 76° |
| 2026-05-05 19:34 | 43.84838 | 1.68332 | 13806 ft | 349 kts | 75° |
| 2026-05-05 19:34 | 43.85519 | 1.71574 | 14373 ft | 352 kts | 74° |
| 2026-05-05 19:34 | 43.86235 | 1.74837 | 14942 ft | 355 kts | 74° |
| 2026-05-05 19:35 | 43.87667 | 1.81453 | 16049 ft | 361 kts | 75° |
| 2026-05-05 19:35 | 43.88389 | 1.84810 | 16597 ft | 364 kts | 75° |
| 2026-05-05 19:35 | 43.89118 | 1.88194 | 17130 ft | 367 kts | 75° |
| 2026-05-05 19:35 | 43.89849 | 1.91599 | 17640 ft | 370 kts | 76° |
| 2026-05-05 19:36 | 43.90586 | 1.95036 | 18196 ft | 372 kts | 76° |
| 2026-05-05 19:36 | 43.91319 | 1.98493 | 18657 ft | 374 kts | 76° |
| 2026-05-05 19:36 | 43.92132 | 2.01932 | 19080 ft | 379 kts | 66° |
| 2026-05-05 19:36 | 43.93598 | 2.04995 | 19526 ft | 384 kts | 52° |
| 2026-05-05 19:37 | 43.95363 | 2.07784 | 19952 ft | 386 kts | 49° |
| 2026-05-05 19:37 | 43.97187 | 2.10537 | 20368 ft | 388 kts | 49° |
| 2026-05-05 19:37 | 43.99013 | 2.13325 | 20781 ft | 390 kts | 50° |
| 2026-05-05 19:37 | 44.00798 | 2.16184 | 21186 ft | 392 kts | 52° |
| 2026-05-05 19:38 | 44.02564 | 2.19092 | 21566 ft | 395 kts | 52° |
| 2026-05-05 19:38 | 44.04343 | 2.22011 | 21945 ft | 397 kts | 52° |
| 2026-05-05 19:38 | 44.06114 | 2.24914 | 22320 ft | 399 kts | 52° |
| 2026-05-05 19:38 | 44.07912 | 2.27876 | 22690 ft | 401 kts | 52° |
| 2026-05-05 19:39 | 44.09717 | 2.30843 | 22993 ft | 404 kts | 52° |
| 2026-05-05 19:39 | 44.11539 | 2.33838 | 23328 ft | 406 kts | 52° |
| 2026-05-05 19:39 | 44.13367 | 2.36854 | 23634 ft | 409 kts | 52° |
| 2026-05-05 19:39 | 44.15207 | 2.39886 | 23890 ft | 411 kts | 52° |
| 2026-05-05 19:40 | 44.17053 | 2.42935 | 24160 ft | 413 kts | 52° |
| 2026-05-05 19:40 | 44.18911 | 2.46002 | 24413 ft | 415 kts | 52° |
| 2026-05-05 19:40 | 44.20774 | 2.49088 | 24680 ft | 417 kts | 52° |
| 2026-05-05 19:40 | 44.22648 | 2.52193 | 24953 ft | 419 kts | 52° |
| 2026-05-05 19:41 | 44.24533 | 2.55311 | 25203 ft | 421 kts | 52° |
| 2026-05-05 19:41 | 44.26422 | 2.58451 | 25445 ft | 423 kts | 52° |
| 2026-05-05 19:41 | 44.28321 | 2.61603 | 25683 ft | 425 kts | 52° |
| 2026-05-05 19:41 | 44.30202 | 2.64726 | 25910 ft | 427 kts | 52° |
| 2026-05-05 19:42 | 44.32115 | 2.67918 | 26099 ft | 429 kts | 52° |
| 2026-05-05 19:42 | 44.34049 | 2.71148 | 26129 ft | 436 kts | 53° |
| 2026-05-05 19:42 | 44.35995 | 2.74406 | 26344 ft | 438 kts | 53° |
| 2026-05-05 19:42 | 44.37959 | 2.77684 | 26558 ft | 440 kts | 53° |
| 2026-05-05 19:43 | 44.39924 | 2.80969 | 26803 ft | 441 kts | 53° |
| 2026-05-05 19:43 | 44.41895 | 2.84269 | 27026 ft | 442 kts | 53° |
| 2026-05-05 19:43 | 44.43876 | 2.87585 | 27233 ft | 444 kts | 52° |
| 2026-05-05 19:43 | 44.45860 | 2.90919 | 27436 ft | 446 kts | 53° |
| 2026-05-05 19:44 | 44.47852 | 2.94267 | 27617 ft | 448 kts | 53° |
| 2026-05-05 19:44 | 44.49850 | 2.97626 | 27824 ft | 449 kts | 53° |
| 2026-05-05 19:44 | 44.51822 | 3.00947 | 28049 ft | 450 kts | 53° |
| 2026-05-05 19:44 | 44.53851 | 3.04367 | 28279 ft | 451 kts | 53° |
| 2026-05-05 19:45 | 44.55854 | 3.07751 | 28473 ft | 452 kts | 54° |
| 2026-05-05 19:45 | 44.57828 | 3.11114 | 28702 ft | 452 kts | 53° |
| 2026-05-05 19:45 | 44.59832 | 3.14520 | 28928 ft | 453 kts | 53° |
| 2026-05-05 19:45 | 44.61714 | 3.18057 | 29144 ft | 450 kts | 62° |
| 2026-05-05 19:46 | 44.63272 | 3.21843 | 29366 ft | 447 kts | 67° |
| 2026-05-05 19:46 | 44.64704 | 3.25724 | 29600 ft | 446 kts | 67° |
| 2026-05-05 19:46 | 44.66129 | 3.29567 | 29795 ft | 448 kts | 66° |
| 2026-05-05 19:47 | 44.69209 | 3.37295 | 29911 ft | 454 kts | 65° |
| 2026-05-05 19:47 | 44.72327 | 3.45105 | 29935 ft | 462 kts | 65° |
| 2026-05-05 19:48 | 44.75472 | 3.53022 | 29935 ft | 470 kts | 65° |
| 2026-05-05 19:48 | 44.78688 | 3.61109 | 29932 ft | 477 kts | 65° |
| 2026-05-05 19:49 | 44.81950 | 3.69340 | 29939 ft | 483 kts | 65° |
| 2026-05-05 19:49 | 44.85213 | 3.77601 | 29939 ft | 487 kts | 65° |
| 2026-05-05 19:50 | 44.88503 | 3.85979 | 29907 ft | 489 kts | 66° |
| 2026-05-05 19:50 | 44.89824 | 3.90412 | 29904 ft | 480 kts | 82° |
| 2026-05-05 19:50 | 44.90226 | 3.94945 | 29934 ft | 466 kts | 98° |
| 2026-05-05 19:51 | 44.90006 | 4.04059 | 29916 ft | 470 kts | 96° |
| 2026-05-05 19:51 | 44.90519 | 4.13325 | 29915 ft | 477 kts | 91° |
| 2026-05-05 19:52 | 44.91154 | 4.22652 | 29899 ft | 478 kts | 91° |
| 2026-05-05 19:52 | 44.91663 | 4.32004 | 29911 ft | 480 kts | 92° |
| 2026-05-05 19:53 | 44.92158 | 4.41449 | 29899 ft | 484 kts | 92° |
| 2026-05-05 19:53 | 44.92626 | 4.50953 | 29933 ft | 488 kts | 92° |
| 2026-05-05 19:54 | 44.93119 | 4.60548 | 29905 ft | 492 kts | 91° |
| 2026-05-05 19:54 | 44.93623 | 4.70224 | 29918 ft | 495 kts | 91° |
| 2026-05-05 19:55 | 44.94113 | 4.79963 | 29916 ft | 498 kts | 91° |
| 2026-05-05 19:55 | 44.94595 | 4.89742 | 29910 ft | 500 kts | 91° |
| 2026-05-05 19:56 | 44.95068 | 4.99552 | 29892 ft | 501 kts | 92° |
| 2026-05-05 19:56 | 44.95536 | 5.09380 | 29905 ft | 501 kts | 92° |
| 2026-05-05 19:57 | 44.95992 | 5.19148 | 29908 ft | 501 kts | 92° |
| 2026-05-05 19:57 | 44.96443 | 5.28989 | 29905 ft | 501 kts | 92° |
| 2026-05-05 19:58 | 44.96882 | 5.38825 | 29901 ft | 501 kts | 92° |
| 2026-05-05 19:58 | 44.97323 | 5.48648 | 29920 ft | 501 kts | 92° |
| 2026-05-05 19:59 | 44.97745 | 5.58479 | 29930 ft | 501 kts | 92° |
| 2026-05-05 19:59 | 44.98162 | 5.68324 | 29908 ft | 501 kts | 92° |
| 2026-05-05 20:00 | 44.98567 | 5.78100 | 29913 ft | 501 kts | 92° |
| 2026-05-05 20:00 | 44.98970 | 5.87923 | 29886 ft | 501 kts | 92° |
| 2026-05-05 20:01 | 44.99365 | 5.97737 | 29946 ft | 500 kts | 92° |
| 2026-05-05 20:01 | 44.99748 | 6.07550 | 29842 ft | 499 kts | 92° |
| 2026-05-05 20:02 | 45.00114 | 6.17324 | 29931 ft | 499 kts | 92° |
| 2026-05-05 20:02 | 45.00476 | 6.27136 | 29921 ft | 500 kts | 92° |
| 2026-05-05 20:03 | 45.00831 | 6.36900 | 29896 ft | 499 kts | 92° |
| 2026-05-05 20:03 | 45.01051 | 6.46705 | 29934 ft | 494 kts | 101° |
| 2026-05-05 20:04 | 45.00116 | 6.56277 | 29936 ft | 493 kts | 103° |
| 2026-05-05 20:04 | 44.99573 | 6.66023 | 29375 ft | 496 kts | 99° |
| 2026-05-05 20:04 | 44.99376 | 6.70842 | 28837 ft | 491 kts | 99° |
| 2026-05-05 20:05 | 44.99153 | 6.75652 | 28290 ft | 488 kts | 100° |
| 2026-05-05 20:05 | 44.98885 | 6.80436 | 27746 ft | 487 kts | 100° |
| 2026-05-05 20:05 | 44.98628 | 6.85181 | 27233 ft | 481 kts | 100° |
| 2026-05-05 20:05 | 44.98361 | 6.89861 | 26681 ft | 475 kts | 100° |
| 2026-05-05 20:06 | 44.98106 | 6.94492 | 26167 ft | 470 kts | 99° |
| 2026-05-05 20:06 | 44.97850 | 6.99065 | 25672 ft | 464 kts | 99° |
| 2026-05-05 20:06 | 44.97588 | 7.03590 | 25196 ft | 458 kts | 99° |
| 2026-05-05 20:06 | 44.97341 | 7.08008 | 24807 ft | 444 kts | 99° |
| 2026-05-05 20:07 | 44.97097 | 7.12293 | 24425 ft | 430 kts | 99° |
| 2026-05-05 20:07 | 44.96850 | 7.16429 | 24026 ft | 417 kts | 100° |
| 2026-05-05 20:07 | 44.96612 | 7.20453 | 23647 ft | 406 kts | 99° |
| 2026-05-05 20:07 | 44.96385 | 7.24383 | 23259 ft | 396 kts | 100° |
| 2026-05-05 20:08 | 44.96139 | 7.28212 | 22789 ft | 387 kts | 101° |
| 2026-05-05 20:08 | 44.95905 | 7.31925 | 22394 ft | 380 kts | 100° |
| 2026-05-05 20:08 | 44.95679 | 7.35614 | 22006 ft | 374 kts | 100° |
| 2026-05-05 20:08 | 44.95457 | 7.39237 | 21614 ft | 368 kts | 100° |
| 2026-05-05 20:09 | 44.95239 | 7.42820 | 21215 ft | 363 kts | 100° |
| 2026-05-05 20:09 | 44.95023 | 7.46342 | 20822 ft | 358 kts | 100° |
| 2026-05-05 20:09 | 44.94809 | 7.49821 | 20412 ft | 355 kts | 100° |
| 2026-05-05 20:09 | 44.94594 | 7.53281 | 19986 ft | 352 kts | 100° |
| 2026-05-05 20:10 | 44.94379 | 7.56728 | 19566 ft | 350 kts | 100° |
| 2026-05-05 20:10 | 44.94167 | 7.60144 | 19153 ft | 348 kts | 100° |
| 2026-05-05 20:10 | 44.93954 | 7.63549 | 18743 ft | 346 kts | 100° |
| 2026-05-05 20:10 | 44.93744 | 7.66930 | 18321 ft | 345 kts | 100° |
| 2026-05-05 20:11 | 44.93535 | 7.70261 | 17870 ft | 344 kts | 100° |
| 2026-05-05 20:11 | 44.93318 | 7.73614 | 17422 ft | 342 kts | 100° |
| 2026-05-05 20:11 | 44.92986 | 7.76901 | 17144 ft | 332 kts | 113° |
| 2026-05-05 20:11 | 44.91916 | 7.79681 | 17050 ft | 316 kts | 138° |
| 2026-05-05 20:12 | 44.90207 | 7.81485 | 17023 ft | 303 kts | 163° |
| 2026-05-05 20:12 | 44.88192 | 7.82030 | 17024 ft | 292 kts | 188° |
| 2026-05-05 20:12 | 44.86887 | 7.81647 | 17026 ft | 288 kts | 204° |
| 2026-05-05 20:12 | 44.85267 | 7.80045 | 17039 ft | 288 kts | 230° |
| 2026-05-05 20:13 | 44.84262 | 7.76585 | 17055 ft | 299 kts | 263° |
| 2026-05-05 20:13 | 44.84591 | 7.73645 | 17047 ft | 312 kts | 288° |
| 2026-05-05 20:13 | 44.85321 | 7.71871 | 17047 ft | 322 kts | 304° |
| 2026-05-05 20:13 | 44.87074 | 7.69811 | 17043 ft | 336 kts | 328° |
| 2026-05-05 20:14 | 44.89340 | 7.68838 | 17042 ft | 348 kts | 352° |
| 2026-05-05 20:14 | 44.91764 | 7.69105 | 16831 ft | 352 kts | 14° |
| 2026-05-05 20:14 | 44.93964 | 7.70591 | 16486 ft | 350 kts | 37° |
| 2026-05-05 20:14 | 44.95596 | 7.73079 | 16225 ft | 343 kts | 62° |
| 2026-05-05 20:15 | 44.96423 | 7.76174 | 16118 ft | 334 kts | 85° |
| 2026-05-05 20:15 | 44.96678 | 7.79420 | 16065 ft | 333 kts | 90° |
| 2026-05-05 20:15 | 44.96710 | 7.82683 | 16036 ft | 331 kts | 99° |
| 2026-05-05 20:15 | 44.96471 | 7.85915 | 16013 ft | 333 kts | 102° |
| 2026-05-05 20:16 | 44.96189 | 7.89178 | 15999 ft | 337 kts | 101° |
| 2026-05-05 20:16 | 44.95940 | 7.92481 | 15990 ft | 337 kts | 99° |
| 2026-05-05 20:16 | 44.95763 | 7.95776 | 15982 ft | 336 kts | 98° |
| 2026-05-05 20:16 | 44.95618 | 7.99051 | 15967 ft | 332 kts | 98° |
| 2026-05-05 20:17 | 44.95462 | 8.02277 | 15955 ft | 328 kts | 98° |
| 2026-05-05 20:17 | 44.95306 | 8.05433 | 15819 ft | 325 kts | 98° |
| 2026-05-05 20:17 | 44.95150 | 8.08596 | 15558 ft | 320 kts | 98° |
| 2026-05-05 20:17 | 44.95010 | 8.11716 | 15298 ft | 316 kts | 97° |
| 2026-05-05 20:18 | 44.94873 | 8.14786 | 15041 ft | 309 kts | 97° |
| 2026-05-05 20:18 | 44.94738 | 8.17775 | 14780 ft | 300 kts | 98° |
| 2026-05-05 20:18 | 44.94597 | 8.20672 | 14518 ft | 291 kts | 98° |
| 2026-05-05 20:18 | 44.94451 | 8.23491 | 14252 ft | 284 kts | 98° |
| 2026-05-05 20:19 | 44.94302 | 8.26237 | 14006 ft | 279 kts | 98° |
| 2026-05-05 20:19 | 44.94161 | 8.28977 | 13764 ft | 279 kts | 97° |
| 2026-05-05 20:19 | 44.94348 | 8.31700 | 13479 ft | 284 kts | 70° |
| 2026-05-05 20:19 | 44.95489 | 8.33936 | 13218 ft | 282 kts | 35° |
| 2026-05-05 20:20 | 44.97253 | 8.34984 | 12998 ft | 273 kts | 1° |
| 2026-05-05 20:20 | 44.99059 | 8.34564 | 12776 ft | 259 kts | 326° |
| 2026-05-05 20:20 | 45.00288 | 8.32917 | 12583 ft | 243 kts | 291° |
| 2026-05-05 20:20 | 45.00545 | 8.30640 | 12405 ft | 238 kts | 254° |
| 2026-05-05 20:21 | 44.99727 | 8.28642 | 12266 ft | 241 kts | 223° |
| 2026-05-05 20:21 | 44.98668 | 8.26788 | 12016 ft | 247 kts | 247° |
| 2026-05-05 20:21 | 44.98483 | 8.24384 | 11799 ft | 248 kts | 269° |
| 2026-05-05 20:21 | 44.98575 | 8.21962 | 11587 ft | 246 kts | 270° |
| 2026-05-05 20:22 | 44.98687 | 8.19554 | 11348 ft | 245 kts | 271° |
| 2026-05-05 20:22 | 44.98815 | 8.17154 | 11107 ft | 245 kts | 272° |
| 2026-05-05 20:22 | 44.98950 | 8.14760 | 10862 ft | 244 kts | 272° |
| 2026-05-05 20:22 | 44.98955 | 8.12383 | 10596 ft | 241 kts | 253° |
| 2026-05-05 20:23 | 44.98084 | 8.10455 | 10350 ft | 236 kts | 215° |
| 2026-05-05 20:23 | 44.96551 | 8.09788 | 10165 ft | 234 kts | 176° |
| 2026-05-05 20:23 | 44.95087 | 8.10663 | 10089 ft | 234 kts | 137° |
| 2026-05-05 20:23 | 44.94332 | 8.12680 | 10067 ft | 238 kts | 99° |
| 2026-05-05 20:24 | 44.94211 | 8.15033 | 10057 ft | 245 kts | 93° |
| 2026-05-05 20:24 | 44.94178 | 8.17491 | 10052 ft | 255 kts | 91° |
| 2026-05-05 20:24 | 44.94446 | 8.19996 | 10048 ft | 264 kts | 71° |
| 2026-05-05 20:24 | 44.94968 | 8.22466 | 9997 ft | 262 kts | 88° |
| 2026-05-05 20:25 | 44.95071 | 8.25009 | 9990 ft | 260 kts | 77° |
| 2026-05-05 20:25 | 44.95967 | 8.27191 | 9990 ft | 260 kts | 40° |
| 2026-05-05 20:25 | 44.97573 | 8.28273 | 10013 ft | 264 kts | 5° |
| 2026-05-05 20:25 | 44.99389 | 8.28018 | 10048 ft | 264 kts | 344° |
| 2026-05-05 20:26 | 45.01223 | 8.28062 | 9990 ft | 268 kts | 18° |
| 2026-05-05 20:26 | 45.02798 | 8.29421 | 10002 ft | 265 kts | 37° |
| 2026-05-05 20:26 | 45.04237 | 8.31023 | 10001 ft | 262 kts | 38° |
| 2026-05-05 20:26 | 45.05642 | 8.32654 | 9994 ft | 260 kts | 40° |
| 2026-05-05 20:27 | 45.07006 | 8.34330 | 9987 ft | 259 kts | 41° |
| 2026-05-05 20:27 | 45.08345 | 8.36024 | 9979 ft | 257 kts | 42° |
| 2026-05-05 20:27 | 45.09671 | 8.37717 | 9975 ft | 256 kts | 42° |
| 2026-05-05 20:27 | 45.10983 | 8.39406 | 9969 ft | 255 kts | 43° |
| 2026-05-05 20:28 | 45.12288 | 8.41102 | 9975 ft | 256 kts | 43° |
| 2026-05-05 20:28 | 45.13598 | 8.42833 | 9974 ft | 258 kts | 44° |
| 2026-05-05 20:28 | 45.14904 | 8.44596 | 9985 ft | 260 kts | 44° |
| 2026-05-05 20:28 | 45.16219 | 8.46368 | 9990 ft | 262 kts | 44° |
| 2026-05-05 20:29 | 45.17551 | 8.48137 | 9988 ft | 262 kts | 43° |
| 2026-05-05 20:29 | 45.18901 | 8.49876 | 9985 ft | 262 kts | 43° |
| 2026-05-05 20:29 | 45.20248 | 8.51612 | 9986 ft | 261 kts | 43° |
| 2026-05-05 20:29 | 45.21597 | 8.53330 | 9980 ft | 261 kts | 38° |
| 2026-05-05 20:30 | 45.23233 | 8.54320 | 9963 ft | 257 kts | 1° |
| 2026-05-05 20:30 | 45.24901 | 8.53821 | 9985 ft | 247 kts | 324° |
| 2026-05-05 20:30 | 45.26002 | 8.52078 | 10008 ft | 235 kts | 287° |
| 2026-05-05 20:30 | 45.26085 | 8.49859 | 10048 ft | 226 kts | 248° |
| 2026-05-05 20:31 | 45.25145 | 8.48153 | 10066 ft | 223 kts | 209° |
| 2026-05-05 20:31 | 45.23723 | 8.47249 | 10073 ft | 228 kts | 200° |
| 2026-05-05 20:31 | 45.22194 | 8.46528 | 10061 ft | 235 kts | 195° |
| 2026-05-05 20:31 | 45.20551 | 8.46423 | 10056 ft | 241 kts | 175° |
| 2026-05-05 20:32 | 45.18865 | 8.46698 | 10038 ft | 245 kts | 174° |
| 2026-05-05 20:32 | 45.17170 | 8.47031 | 10021 ft | 246 kts | 173° |
| 2026-05-05 20:32 | 45.15479 | 8.47372 | 10008 ft | 244 kts | 173° |
| 2026-05-05 20:32 | 45.13866 | 8.47908 | 9970 ft | 242 kts | 153° |
| 2026-05-05 20:33 | 45.12729 | 8.49610 | 9983 ft | 243 kts | 114° |
| 2026-05-05 20:33 | 45.12578 | 8.51970 | 9991 ft | 248 kts | 76° |
| 2026-05-05 20:33 | 45.13461 | 8.54048 | 10022 ft | 252 kts | 38° |
| 2026-05-05 20:33 | 45.15050 | 8.55041 | 10060 ft | 254 kts | 1° |
| 2026-05-05 20:34 | 45.16811 | 8.54896 | 10070 ft | 256 kts | 349° |
| 2026-05-05 20:34 | 45.18575 | 8.54457 | 10062 ft | 258 kts | 345° |
| 2026-05-05 20:34 | 45.20316 | 8.53814 | 10044 ft | 258 kts | 339° |
| 2026-05-05 20:34 | 45.21932 | 8.52761 | 10014 ft | 254 kts | 315° |
| 2026-05-05 20:35 | 45.22846 | 8.50745 | 10022 ft | 242 kts | 277° |
| 2026-05-05 20:35 | 45.22677 | 8.48470 | 10065 ft | 231 kts | 239° |
| 2026-05-05 20:35 | 45.21560 | 8.46864 | 9933 ft | 235 kts | 204° |
| 2026-05-05 20:35 | 45.19953 | 8.46511 | 9773 ft | 237 kts | 178° |
| 2026-05-05 20:36 | 45.18299 | 8.46690 | 9556 ft | 240 kts | 174° |
| 2026-05-05 20:36 | 45.16637 | 8.47005 | 9323 ft | 243 kts | 172° |
| 2026-05-05 20:36 | 45.14979 | 8.47412 | 9141 ft | 239 kts | 170° |
| 2026-05-05 20:36 | 45.13488 | 8.48332 | 9029 ft | 235 kts | 137° |
| 2026-05-05 20:37 | 45.12754 | 8.50343 | 9016 ft | 235 kts | 97° |
| 2026-05-05 20:37 | 45.13079 | 8.52585 | 9021 ft | 243 kts | 58° |
| 2026-05-05 20:37 | 45.14339 | 8.54173 | 9066 ft | 250 kts | 20° |
| 2026-05-05 20:37 | 45.16055 | 8.54512 | 9095 ft | 253 kts | 354° |
| 2026-05-05 20:38 | 45.17796 | 8.54305 | 9078 ft | 250 kts | 350° |
| 2026-05-05 20:38 | 45.19512 | 8.53916 | 9043 ft | 249 kts | 346° |
| 2026-05-05 20:38 | 45.21187 | 8.53313 | 9025 ft | 247 kts | 337° |
| 2026-05-05 20:38 | 45.22541 | 8.51937 | 9015 ft | 239 kts | 299° |
| 2026-05-05 20:39 | 45.22961 | 8.49754 | 9042 ft | 229 kts | 259° |
| 2026-05-05 20:39 | 45.22297 | 8.47757 | 9076 ft | 228 kts | 225° |
| 2026-05-05 20:39 | 45.20985 | 8.46527 | 9099 ft | 230 kts | 192° |
| 2026-05-05 20:39 | 45.19395 | 8.46468 | 9126 ft | 231 kts | 175° |
| 2026-05-05 20:40 | 45.17781 | 8.46720 | 9109 ft | 236 kts | 173° |
| 2026-05-05 20:40 | 45.16153 | 8.47090 | 9081 ft | 237 kts | 171° |
| 2026-05-05 20:40 | 45.14559 | 8.47551 | 9037 ft | 236 kts | 165° |
| 2026-05-05 20:40 | 45.13213 | 8.48830 | 9005 ft | 238 kts | 126° |
| 2026-05-05 20:41 | 45.12750 | 8.51050 | 9007 ft | 241 kts | 86° |
| 2026-05-05 20:41 | 45.13358 | 8.53254 | 9030 ft | 247 kts | 48° |
| 2026-05-05 20:41 | 45.14801 | 8.54587 | 8892 ft | 251 kts | 12° |
| 2026-05-05 20:41 | 45.16525 | 8.54670 | 8720 ft | 249 kts | 352° |
| 2026-05-05 20:42 | 45.18252 | 8.54352 | 8512 ft | 251 kts | 347° |
| 2026-05-05 20:42 | 45.19959 | 8.53845 | 8289 ft | 250 kts | 343° |
| 2026-05-05 20:42 | 45.21588 | 8.53061 | 8117 ft | 243 kts | 327° |
| 2026-05-05 20:42 | 45.22675 | 8.51370 | 8062 ft | 232 kts | 286° |
| 2026-05-05 20:43 | 45.22720 | 8.49142 | 8069 ft | 230 kts | 246° |
| 2026-05-05 20:43 | 45.21826 | 8.47333 | 8076 ft | 229 kts | 220° |
| 2026-05-05 20:43 | 45.20392 | 8.46429 | 8078 ft | 231 kts | 182° |
| 2026-05-05 20:43 | 45.18778 | 8.46527 | 8072 ft | 234 kts | 174° |
| 2026-05-05 20:44 | 45.17157 | 8.46817 | 8059 ft | 236 kts | 172° |
| 2026-05-05 20:44 | 45.15532 | 8.47224 | 8025 ft | 238 kts | 169° |
| 2026-05-05 20:44 | 45.13957 | 8.47884 | 7993 ft | 236 kts | 149° |
| 2026-05-05 20:44 | 45.12940 | 8.49628 | 7997 ft | 234 kts | 109° |
| 2026-05-05 20:45 | 45.13959 | 8.53683 | 8037 ft | 242 kts | 30° |
| 2026-05-05 20:45 | 45.15576 | 8.54302 | 8077 ft | 245 kts | 357° |
| 2026-05-05 20:45 | 45.17287 | 8.54117 | 8089 ft | 251 kts | 351° |
| 2026-05-05 20:46 | 45.19076 | 8.53833 | 7879 ft | 266 kts | 352° |
| 2026-05-05 20:46 | 45.20975 | 8.53830 | 7665 ft | 279 kts | 357° |
| 2026-05-05 20:46 | 45.22946 | 8.53576 | 7467 ft | 290 kts | 351° |
| 2026-05-05 20:46 | 45.24974 | 8.53166 | 7256 ft | 293 kts | 347° |
| 2026-05-05 20:47 | 45.26900 | 8.52469 | 7026 ft | 279 kts | 341° |
| 2026-05-05 20:47 | 45.28700 | 8.51652 | 6767 ft | 264 kts | 340° |
| 2026-05-05 20:47 | 45.30409 | 8.50824 | 6504 ft | 255 kts | 340° |
| 2026-05-05 20:47 | 45.32089 | 8.50095 | 6228 ft | 251 kts | 349° |
| 2026-05-05 20:48 | 45.33768 | 8.50388 | 6060 ft | 243 kts | 28° |
| 2026-05-05 20:48 | 45.34938 | 8.52032 | 6024 ft | 242 kts | 66° |
| 2026-05-05 20:48 | 45.35169 | 8.54398 | 6034 ft | 247 kts | 103° |
| 2026-05-05 20:48 | 45.34804 | 8.56809 | 6034 ft | 255 kts | 94° |
| 2026-05-05 20:49 | 45.34907 | 8.59348 | 6047 ft | 259 kts | 89° |
| 2026-05-05 20:49 | 45.34988 | 8.61897 | 6039 ft | 255 kts | 91° |
| 2026-05-05 20:49 | 45.34643 | 8.64290 | 6006 ft | 245 kts | 124° |
| 2026-05-05 20:49 | 45.33442 | 8.65879 | 6019 ft | 232 kts | 151° |
| 2026-05-05 20:50 | 45.32035 | 8.66894 | 6015 ft | 226 kts | 161° |
| 2026-05-05 20:50 | 45.31044 | 8.67334 | 6005 ft | 216 kts | 168° |
| 2026-05-05 20:50 | 45.29118 | 8.67866 | 6014 ft | 211 kts | 172° |
| 2026-05-05 20:50 | 45.27676 | 8.68194 | 6013 ft | 209 kts | 172° |
| 2026-05-05 20:51 | 45.26237 | 8.68515 | 6008 ft | 209 kts | 172° |
| 2026-05-05 20:51 | 45.24801 | 8.68862 | 6001 ft | 209 kts | 171° |
| 2026-05-05 20:51 | 45.23366 | 8.69247 | 6000 ft | 210 kts | 170° |
| 2026-05-05 20:51 | 45.21930 | 8.69638 | 5996 ft | 210 kts | 170° |
| 2026-05-05 20:52 | 45.20574 | 8.70399 | 5828 ft | 215 kts | 139° |
| 2026-05-05 20:52 | 45.19868 | 8.72225 | 5465 ft | 218 kts | 98° |
| 2026-05-05 20:52 | 45.20196 | 8.74296 | 5108 ft | 221 kts | 56° |
| 2026-05-05 20:52 | 45.21332 | 8.75738 | 4791 ft | 221 kts | 22° |
| 2026-05-05 20:53 | 45.22780 | 8.76389 | 4509 ft | 224 kts | 15° |
| 2026-05-05 20:53 | 45.24296 | 8.76983 | 4239 ft | 225 kts | 14° |
| 2026-05-05 20:53 | 45.25785 | 8.77527 | 4113 ft | 217 kts | 14° |
| 2026-05-05 20:53 | 45.27245 | 8.78030 | 4047 ft | 215 kts | 13° |
| 2026-05-05 20:54 | 45.28707 | 8.78520 | 4023 ft | 216 kts | 13° |
| 2026-05-05 20:54 | 45.30176 | 8.79006 | 4013 ft | 216 kts | 13° |
| 2026-05-05 20:54 | 45.31645 | 8.79487 | 4009 ft | 217 kts | 13° |
| 2026-05-05 20:54 | 45.33144 | 8.79769 | 4002 ft | 218 kts | 360° |
| 2026-05-05 20:55 | 45.34638 | 8.79713 | 4000 ft | 218 kts | 357° |
| 2026-05-05 20:55 | 45.36158 | 8.79602 | 3999 ft | 218 kts | 356° |
| 2026-05-05 20:55 | 45.37680 | 8.79462 | 3999 ft | 219 kts | 356° |
| 2026-05-05 20:55 | 45.39201 | 8.79300 | 4002 ft | 219 kts | 355° |
| 2026-05-05 20:56 | 45.40724 | 8.79124 | 4002 ft | 217 kts | 355° |
| 2026-05-05 20:56 | 45.42148 | 8.78942 | 4019 ft | 195 kts | 354° |
| 2026-05-05 20:56 | 45.43454 | 8.78705 | 3996 ft | 183 kts | 351° |
| 2026-05-05 20:56 | 45.44697 | 8.78429 | 3982 ft | 181 kts | 351° |
| 2026-05-05 20:57 | 45.45947 | 8.78107 | 3935 ft | 187 kts | 348° |
| 2026-05-05 20:57 | 45.47222 | 8.77723 | 3645 ft | 186 kts | 348° |
| 2026-05-05 20:57 | 45.48476 | 8.77370 | 3414 ft | 180 kts | 349° |
| 2026-05-05 20:57 | 45.49284 | 8.77147 | 3277 ft | 178 kts | 349° |
| 2026-05-05 20:58 | 45.50495 | 8.76816 | 3020 ft | 175 kts | 349° |
| 2026-05-05 20:58 | 45.51682 | 8.76490 | 2762 ft | 172 kts | 350° |
| 2026-05-05 20:58 | 45.52836 | 8.76171 | 2517 ft | 170 kts | 350° |
| 2026-05-05 20:58 | 45.54005 | 8.75852 | 2297 ft | 164 kts | 350° |
| 2026-05-05 20:59 | 45.55081 | 8.75552 | 2058 ft | 154 kts | 350° |
| 2026-05-05 20:59 | 45.56117 | 8.75267 | 1842 ft | 151 kts | 351° |
| 2026-05-05 20:59 | 45.57154 | 8.74981 | 1636 ft | 152 kts | 351° |
| 2026-05-05 20:59 | 45.58171 | 8.74714 | 1448 ft | 145 kts | 351° |
| 2026-05-05 21:00 | 45.59155 | 8.74426 | 1280 ft | 144 kts | 349° |
| 2026-05-05 21:00 | 45.60136 | 8.74147 | 1081 ft | 142 kts | 349° |
| 2026-05-05 21:00 | 45.61100 | 8.73880 | 872 ft | 140 kts | 349° |
| 2026-05-05 21:00 | 45.62047 | 8.73619 | 716 ft | 127 kts | 349° |
| 2026-05-05 21:01 | 45.62715 | 8.73437 | 719 ft | 75 kts | 349° |
| 2026-05-05 21:01 | 45.63100 | 8.73284 | 714 ft | 43 kts | 328° |
| 2026-05-05 21:01 | 45.63266 | 8.73059 | 715 ft | 16 kts | 305° |
| 2026-05-05 21:01 | 45.63339 | 8.72908 | 717 ft | 20 kts | 302° |
| 2026-05-05 21:02 | 45.63400 | 8.72766 | 718 ft | 18 kts | 289° |
| 2026-05-05 21:02 | 45.63406 | 8.72605 | 714 ft | 18 kts | 260° |
| 2026-05-05 21:02 | 45.63378 | 8.72405 | 716 ft | 23 kts | 259° |
| 2026-05-05 21:02 | 45.63347 | 8.72175 | 715 ft | 18 kts | 257° |
| 2026-05-05 21:03 | 45.63330 | 8.72043 | 719 ft | 5 kts | 261° |
| 2026-05-05 21:03 | 45.63330 | 8.72039 | 718 ft | 0 kts | 261° |
| 2026-05-05 21:03 | 45.63326 | 8.72009 | 716 ft | 7 kts | 258° |
| 2026-05-05 21:03 | 45.63261 | 8.71975 | 715 ft | 17 kts | 171° |
| 2026-05-05 21:04 | 45.63155 | 8.72004 | 715 ft | 14 kts | 170° |
| 2026-05-05 21:04 | 45.63046 | 8.72036 | 718 ft | 18 kts | 168° |
| 2026-05-05 21:04 | 45.62909 | 8.72074 | 716 ft | 23 kts | 169° |
| 2026-05-05 21:04 | 45.62792 | 8.72107 | 716 ft | 11 kts | 169° |
| 2026-05-05 21:05 | 45.62788 | 8.72108 | 715 ft | 0 kts | 169° |
| 2026-05-05 21:06 | 45.62787 | 8.72108 | 715 ft | 1 kts | 169° |
| 2026-05-05 21:06 | 45.62738 | 8.72121 | 715 ft | 15 kts | 174° |
| 2026-05-05 21:06 | 45.62675 | 8.72002 | 714 ft | 19 kts | 260° |
| 2026-05-05 21:06 | 45.62667 | 8.71841 | 715 ft | 14 kts | 308° |
| 2026-05-05 21:07 | 45.62720 | 8.71815 | 719 ft | 8 kts | 360° |
| 2026-05-05 21:07 | 45.62747 | 8.71861 | 716 ft | 1 kts | 82° |
| 2026-05-05 21:07 | 45.62751 | 8.71894 | 714 ft | 6 kts | 79° |
| 2026-05-05 21:07 | 45.62752 | 8.71906 | 715 ft | 0 kts | 77° |